createdAt,value
2015-03-13T09:39:56.705Z,43295
2015-03-13T09:40:09.987Z,43576
2015-03-13T09:40:23.362Z,43909
2015-03-13T09:40:36.877Z,44205
2015-03-13T09:40:50.162Z,44123
2015-03-13T09:41:03.537Z,32830
2015-03-13T09:41:17.052Z,42012
2015-03-13T09:41:30.318Z,40641
2015-03-13T09:41:43.756Z,44821
2015-03-13T09:41:56.975Z,44724
2015-03-13T09:42:10.397Z,44508
2015-03-13T09:42:23.866Z,44496
2015-03-13T09:42:37.100Z,41666
2015-03-13T09:42:50.431Z,41318
2015-03-13T09:43:03.978Z,41380
2015-03-13T09:43:17.275Z,43423
2015-03-13T09:43:30.541Z,43362
2015-03-13T09:43:44.043Z,43352
2015-03-13T09:43:57.402Z,43315
2015-03-13T09:44:10.652Z,41473
2015-03-13T09:44:24.136Z,43579
2015-03-13T09:44:37.480Z,43816
2015-03-13T09:44:50.999Z,42361
2015-03-13T09:45:04.327Z,44089
2015-03-13T09:45:17.608Z,40411
2015-03-13T09:45:31.139Z,44091
2015-03-13T09:45:44.578Z,38302
2015-03-13T09:45:57.828Z,43514
2015-03-13T09:46:11.343Z,43477
2015-03-13T09:46:24.734Z,43499
2015-03-13T09:46:37.984Z,43510
2015-03-13T09:46:51.471Z,43620
2015-03-13T09:47:04.909Z,43647
2015-03-13T09:47:18.128Z,43622
2015-03-13T09:47:31.518Z,43553
2015-03-13T09:47:44.989Z,43512
2015-03-13T09:47:58.239Z,43450
2015-03-13T09:48:12.145Z,43433
2015-03-13T09:48:25.630Z,43398
2015-03-13T09:48:38.911Z,43308
2015-03-13T09:48:52.195Z,43306
2015-03-13T09:49:05.726Z,43410
2015-03-13T09:49:19.070Z,43542
2015-03-13T09:49:32.305Z,43666
2015-03-13T09:49:45.838Z,43681
2015-03-13T09:49:59.291Z,43731
2015-03-13T09:50:12.744Z,43855
2015-03-13T09:50:26.088Z,43942
2015-03-13T09:50:39.353Z,44080
2015-03-13T09:50:52.809Z,44344
2015-03-13T09:51:06.121Z,44557
2015-03-13T09:51:19.355Z,44625
2015-03-13T09:51:32.840Z,44679
2015-03-13T09:51:46.218Z,44704
2015-03-13T09:51:59.468Z,44722
2015-03-13T09:52:12.937Z,44697
2015-03-13T09:52:26.374Z,44715
2015-03-13T09:52:39.624Z,44744
2015-03-13T09:52:53.017Z,44665
2015-03-13T09:53:06.298Z,44542
2015-03-13T09:53:19.845Z,44428
2015-03-13T09:53:33.204Z,44304
2015-03-13T09:53:46.441Z,44323
2015-03-13T09:53:59.894Z,44287
2015-03-13T09:54:13.378Z,44252
2015-03-13T09:54:26.612Z,44217
2015-03-13T09:54:40.034Z,44199
2015-03-13T09:54:53.553Z,44199
2015-03-13T09:55:06.787Z,44174
2015-03-13T09:55:20.162Z,44068
2015-03-13T09:55:33.678Z,44080
2015-03-13T09:55:47.007Z,44045
2015-03-13T09:56:00.460Z,43956
2015-03-13T09:56:13.695Z,43903
2015-03-13T09:56:27.085Z,43953
2015-03-13T09:56:40.554Z,43950
2015-03-13T09:56:53.807Z,44055
2015-03-13T09:57:07.135Z,44212
2015-03-13T09:57:20.635Z,44395
2015-03-13T09:57:33.901Z,44631
2015-03-13T09:57:47.231Z,44849
2015-03-13T09:58:00.762Z,45025
2015-03-13T09:58:14.090Z,45137
2015-03-13T09:58:27.340Z,45199
2015-03-13T09:58:40.809Z,45169
2015-03-13T09:58:54.202Z,45169
2015-03-13T09:59:07.436Z,45116
2015-03-13T09:59:20.905Z,44992
2015-03-13T09:59:34.373Z,44887
2015-03-13T09:59:47.626Z,44877
2015-03-13T10:00:01.033Z,45029
2015-03-13T10:00:14.548Z,45171
2015-03-13T10:00:27.798Z,45331
2015-03-13T10:00:41.158Z,45428
2015-03-13T10:00:54.723Z,45445
2015-03-13T10:01:08.004Z,45374
2015-03-13T10:01:21.317Z,45241
2015-03-13T10:01:34.708Z,45117
2015-03-13T10:01:48.193Z,45029
2015-03-13T10:02:01.677Z,44982
2015-03-13T10:02:14.896Z,45069
2015-03-13T10:02:28.255Z,45243
2015-03-13T10:02:41.724Z,45550
2015-03-13T10:02:55.024Z,45806
2015-03-13T10:03:08.305Z,45865
2015-03-13T10:03:21.805Z,45855
2015-03-13T10:03:35.133Z,45781
2015-03-13T10:03:48.417Z,45656
2015-03-13T10:04:01.917Z,45432
2015-03-13T10:04:15.292Z,45335
2015-03-13T10:04:28.729Z,45148
2015-03-13T10:04:42.073Z,44979
2015-03-13T10:04:55.357Z,44978
2015-03-13T10:05:08.873Z,45110
2015-03-13T10:05:22.232Z,45270
2015-03-13T10:05:35.482Z,45297
2015-03-13T10:05:48.999Z,45332
2015-03-13T10:06:02.421Z,45437
2015-03-13T10:06:15.686Z,45640
2015-03-13T10:06:29.155Z,45827
2015-03-13T10:06:42.608Z,45870
2015-03-13T10:06:55.831Z,45957
2015-03-13T10:07:09.222Z,46241
2015-03-13T10:07:22.581Z,46435
2015-03-13T10:07:36.097Z,46544
2015-03-13T10:07:49.488Z,46580
2015-03-13T10:08:02.707Z,46635
2015-03-13T10:08:16.176Z,46654
2015-03-13T10:08:29.644Z,46637
2015-03-13T10:08:42.863Z,46522
2015-03-13T10:08:56.272Z,46543
2015-03-13T10:09:09.772Z,46481
2015-03-13T10:09:23.007Z,46475
2015-03-13T10:09:36.351Z,46394
2015-03-13T10:09:49.868Z,46246
2015-03-13T10:10:03.134Z,46201
2015-03-13T10:10:16.431Z,46165
2015-03-13T10:10:29.946Z,46157
2015-03-13T10:10:43.290Z,46221
2015-03-13T10:10:56.511Z,46344
2015-03-13T10:11:10.042Z,46550
2015-03-13T10:11:23.448Z,46693
2015-03-13T10:11:36.698Z,46712
2015-03-13T10:11:50.170Z,46588
2015-03-13T10:12:03.623Z,46419
2015-03-13T10:12:16.858Z,46209
2015-03-13T10:12:30.248Z,46005
2015-03-13T10:12:43.733Z,45801
2015-03-13T10:12:57.016Z,45634
2015-03-13T10:13:10.375Z,45512
2015-03-13T10:13:23.625Z,45433
2015-03-13T10:13:37.125Z,45487
2015-03-13T10:13:50.549Z,45600
2015-03-13T10:14:03.815Z,45796
2015-03-13T10:14:17.205Z,45884
2015-03-13T10:14:30.690Z,45883
2015-03-13T10:14:43.924Z,45954
2015-03-13T10:14:57.255Z,46025
2015-03-13T10:15:10.771Z,46067
2015-03-13T10:15:24.052Z,46155
2015-03-13T10:15:37.396Z,46277
2015-03-13T10:15:50.851Z,46444
2015-03-13T10:16:04.242Z,46531
2015-03-13T10:16:17.804Z,46601
2015-03-13T10:16:31.038Z,46585
2015-03-13T10:16:44.398Z,46575
2015-03-13T10:16:57.931Z,46653
2015-03-13T10:17:11.275Z,46688
2015-03-13T10:17:24.572Z,46670
2015-03-13T10:17:38.103Z,46663
2015-03-13T10:17:51.465Z,46540
2015-03-13T10:18:05.168Z,46531
2015-03-13T10:18:19.043Z,46638
2015-03-13T10:18:32.434Z,46638
2015-03-13T10:18:45.809Z,46601
2015-03-13T10:18:59.124Z,46725
2015-03-13T10:19:12.436Z,46830
2015-03-13T10:19:25.952Z,46866
2015-03-13T10:19:39.342Z,46829
2015-03-13T10:19:52.594Z,46836
2015-03-13T10:20:06.094Z,46817
2015-03-13T10:20:19.485Z,46771
2015-03-13T10:20:32.735Z,46824
2015-03-13T10:20:46.188Z,46842
2015-03-13T10:20:59.660Z,46859
2015-03-13T10:21:12.910Z,46921
2015-03-13T10:21:26.316Z,46991
2015-03-13T10:21:39.629Z,47028
2015-03-13T10:21:53.162Z,46984
2015-03-13T10:22:06.615Z,46926
2015-03-13T10:22:19.896Z,46785
2015-03-13T10:22:33.334Z,46556
2015-03-13T10:22:46.818Z,46304
2015-03-13T10:23:00.101Z,46023
2015-03-13T10:23:13.508Z,45761
2015-03-13T10:23:27.008Z,45463
2015-03-13T10:23:40.226Z,45217
2015-03-13T10:23:53.589Z,44973
2015-03-13T10:24:07.089Z,44773
2015-03-13T10:24:20.370Z,44669
2015-03-13T10:24:33.839Z,44573
2015-03-13T10:24:47.073Z,44495
2015-03-13T10:25:00.450Z,44568
2015-03-13T10:25:13.966Z,44632
2015-03-13T10:25:27.200Z,44588
2015-03-13T10:25:40.544Z,44413
2015-03-13T10:25:54.046Z,44254
2015-03-13T10:26:07.421Z,44149
2015-03-13T10:26:20.686Z,44060
2015-03-13T10:26:34.202Z,43895
2015-03-13T10:26:47.561Z,43746
2015-03-13T10:27:00.798Z,43545
2015-03-13T10:27:14.267Z,43194
2015-03-13T10:27:27.642Z,42816
2015-03-13T10:27:41.173Z,42393
2015-03-13T10:27:54.457Z,41874
2015-03-13T10:28:07.770Z,41257
2015-03-13T10:28:21.332Z,40746
2015-03-13T10:28:34.645Z,40413
2015-03-13T10:28:47.863Z,40177
2015-03-13T10:29:01.365Z,39966
2015-03-13T10:29:14.725Z,39834
2015-03-13T10:29:28.006Z,39747
2015-03-13T10:29:41.506Z,39582
2015-03-13T10:29:54.945Z,39381
2015-03-13T10:30:08.289Z,39179
2015-03-13T10:30:21.633Z,38978
2015-03-13T10:30:34.899Z,38761
2015-03-13T10:30:48.430Z,38453
2015-03-13T10:31:01.822Z,38173
2015-03-13T10:31:15.104Z,37917
2015-03-13T10:31:28.619Z,37653
2015-03-13T10:31:42.041Z,37461
2015-03-13T10:31:55.279Z,37275
2015-03-13T10:32:08.669Z,37054
2015-03-13T10:32:22.185Z,36899
2015-03-13T10:32:35.450Z,36733
2015-03-13T10:32:48.810Z,36549
2015-03-13T10:33:02.360Z,36384
2015-03-13T10:33:15.657Z,36289
2015-03-13T10:33:29.000Z,36140
2015-03-13T10:33:42.547Z,35964
2015-03-13T10:33:55.893Z,35797
2015-03-13T10:34:09.112Z,35620
2015-03-13T10:34:22.580Z,35461
2015-03-13T10:34:35.971Z,35364
2015-03-13T10:34:49.237Z,35391
2015-03-13T10:35:02.661Z,35479
2015-03-13T10:35:16.098Z,35531
2015-03-13T10:35:29.348Z,35628
2015-03-13T10:35:42.786Z,35662
2015-03-13T10:35:56.131Z,35715
2015-03-13T10:36:09.631Z,35655
2015-03-13T10:36:23.006Z,35443
2015-03-13T10:36:36.241Z,35185
2015-03-13T10:36:49.678Z,34972
2015-03-13T10:37:03.180Z,34811
2015-03-13T10:37:16.430Z,34713
2015-03-13T10:37:29.836Z,34684
2015-03-13T10:37:43.399Z,34735
2015-03-13T10:37:56.699Z,34830
2015-03-13T10:38:10.074Z,34932
2015-03-13T10:38:23.636Z,35221
2015-03-13T10:38:36.933Z,35547
2015-03-13T10:38:50.386Z,35880
2015-03-13T10:39:03.623Z,36233
2015-03-13T10:39:17.029Z,36549
2015-03-13T10:39:30.513Z,36866
2015-03-13T10:39:43.748Z,37184
2015-03-13T10:39:57.093Z,37429
2015-03-13T10:40:10.578Z,37560
2015-03-13T10:40:23.859Z,37692
2015-03-13T10:40:37.140Z,37790
2015-03-13T10:40:50.672Z,37754
2015-03-13T10:41:03.987Z,37735
2015-03-13T10:41:17.237Z,37672
2015-03-13T10:41:30.721Z,37510
2015-03-13T10:41:44.112Z,37356
2015-03-13T10:41:57.692Z,37355
2015-03-13T10:42:11.005Z,37378
2015-03-13T10:42:24.348Z,37393
2015-03-13T10:42:37.864Z,37612
2015-03-13T10:42:51.286Z,37903
2015-03-13T10:43:04.539Z,38159
2015-03-13T10:43:18.023Z,38450
2015-03-13T10:43:31.445Z,38849
2015-03-13T10:43:44.680Z,39183
2015-03-13T10:43:58.166Z,39414
2015-03-13T10:44:11.603Z,39564
2015-03-13T10:44:24.963Z,39750
2015-03-13T10:44:38.307Z,39937
2015-03-13T10:44:51.541Z,39990
2015-03-13T10:45:05.027Z,40007
2015-03-13T10:45:18.465Z,40166
2015-03-13T10:45:31.730Z,40450
2015-03-13T10:45:45.152Z,40652
2015-03-13T10:45:58.608Z,40801
2015-03-13T10:46:11.827Z,40931
2015-03-13T10:46:25.218Z,41002
2015-03-13T10:46:38.765Z,40983
2015-03-13T10:46:52.046Z,40963
2015-03-13T10:47:05.375Z,40998
2015-03-13T10:47:18.703Z,41042
2015-03-13T10:47:32.219Z,41112
2015-03-13T10:47:45.719Z,41201
2015-03-13T10:47:59.034Z,41341
2015-03-13T10:48:12.878Z,41533
2015-03-13T10:48:26.409Z,41710
2015-03-13T10:48:39.628Z,41894
2015-03-13T10:48:53.081Z,42061
2015-03-13T10:49:06.583Z,42210
2015-03-13T10:49:19.896Z,42344
2015-03-13T10:49:33.161Z,42406
2015-03-13T10:49:46.724Z,42504
2015-03-13T10:50:00.101Z,42601
2015-03-13T10:50:13.523Z,42725
2015-03-13T10:50:26.773Z,42839
2015-03-13T10:50:40.132Z,43007
2015-03-13T10:50:53.679Z,43183
2015-03-13T10:51:06.948Z,43485
2015-03-13T10:51:20.213Z,43696
2015-03-13T10:51:33.698Z,43980
2015-03-13T10:51:47.010Z,44297
2015-03-13T10:52:00.356Z,44643
2015-03-13T10:52:13.856Z,44849
2015-03-13T10:52:27.262Z,44884
2015-03-13T10:52:40.496Z,44822
2015-03-13T10:52:54.012Z,44735
2015-03-13T10:53:07.327Z,44551
2015-03-13T10:53:20.811Z,44250
2015-03-13T10:53:34.155Z,44083
2015-03-13T10:53:47.373Z,44006
2015-03-13T10:54:00.891Z,43838
2015-03-13T10:54:14.282Z,43679
2015-03-13T10:54:27.516Z,43467
2015-03-13T10:54:40.954Z,43253
2015-03-13T10:54:54.360Z,43137
2015-03-13T10:55:07.597Z,43139
2015-03-13T10:55:21.003Z,43166
2015-03-13T10:55:34.519Z,43172
2015-03-13T10:55:47.800Z,43305
2015-03-13T10:56:01.130Z,43410
2015-03-13T10:56:14.630Z,43390
2015-03-13T10:56:27.927Z,43297
2015-03-13T10:56:41.209Z,43285
2015-03-13T10:56:54.693Z,43302
2015-03-13T10:57:08.023Z,43202
2015-03-13T10:57:21.320Z,43202
2015-03-13T10:57:34.820Z,43180
2015-03-13T10:57:48.257Z,43330
2015-03-13T10:58:01.557Z,43471
2015-03-13T10:58:15.042Z,43665
2015-03-13T10:58:28.542Z,43752
2015-03-13T10:58:41.885Z,43830
2015-03-13T10:58:55.214Z,43909
2015-03-13T10:59:08.482Z,43996
2015-03-13T10:59:21.951Z,44129
2015-03-13T10:59:35.326Z,44181
2015-03-13T10:59:48.592Z,44200
2015-03-13T11:00:02.062Z,44252
2015-03-13T11:00:15.500Z,44445
2015-03-13T11:00:28.812Z,44621
2015-03-13T11:00:42.265Z,44778
2015-03-13T11:00:55.812Z,45096
2015-03-13T11:01:09.128Z,45413
2015-03-13T11:01:22.550Z,45687
2015-03-13T11:01:35.940Z,45881
2015-03-13T11:01:49.456Z,45943
2015-03-13T11:02:02.974Z,45864
2015-03-13T11:02:16.380Z,45741
2015-03-13T11:02:29.833Z,45716
2015-03-13T11:02:43.333Z,45680
2015-03-13T11:02:56.661Z,45540
2015-03-13T11:03:10.053Z,45418
2015-03-13T11:03:23.584Z,45359
2015-03-13T11:03:36.896Z,45262
2015-03-13T11:03:50.256Z,45184
2015-03-13T11:04:03.790Z,45132
2015-03-13T11:04:17.103Z,45114
2015-03-13T11:04:30.540Z,45122
2015-03-13T11:04:43.774Z,45157
2015-03-13T11:04:57.087Z,45254
2015-03-13T11:05:10.606Z,45341
2015-03-13T11:05:23.887Z,45410
2015-03-13T11:05:37.184Z,45523
2015-03-13T11:05:50.684Z,45654
2015-03-13T11:06:04.044Z,45821
2015-03-13T11:06:17.310Z,45996
2015-03-13T11:06:30.825Z,46073
2015-03-13T11:06:44.294Z,46162
2015-03-13T11:06:57.591Z,46073
2015-03-13T11:07:11.110Z,45921
2015-03-13T11:07:24.422Z,45771
2015-03-13T11:07:38.000Z,45542
2015-03-13T11:07:51.360Z,45410
2015-03-13T11:08:04.612Z,45392
2015-03-13T11:08:18.174Z,45445
2015-03-13T11:08:31.596Z,45542
2015-03-13T11:08:44.815Z,45647
2015-03-13T11:08:58.268Z,45851
2015-03-13T11:09:11.708Z,46052
2015-03-13T11:09:24.958Z,46254
2015-03-13T11:09:38.333Z,46288
2015-03-13T11:09:51.818Z,46288
2015-03-13T11:10:05.117Z,46304
2015-03-13T11:10:18.507Z,46401
2015-03-13T11:10:31.726Z,46562
2015-03-13T11:10:45.195Z,46615
2015-03-13T11:10:58.632Z,46668
2015-03-13T11:11:11.854Z,46785
2015-03-13T11:11:25.245Z,46911
2015-03-13T11:11:38.791Z,46966
2015-03-13T11:11:52.073Z,46690
2015-03-13T11:12:05.433Z,46516
2015-03-13T11:12:18.933Z,46553
2015-03-13T11:12:32.214Z,46528
2015-03-13T11:12:45.511Z,46245
2015-03-13T11:12:58.933Z,45919
2015-03-13T11:13:12.374Z,45513
2015-03-13T11:13:25.858Z,45212
2015-03-13T11:13:39.124Z,45034
2015-03-13T11:13:52.483Z,44802
2015-03-13T11:14:05.985Z,44815
2015-03-13T11:14:19.313Z,45216
2015-03-13T11:14:32.579Z,45636
2015-03-13T11:14:46.079Z,46104
2015-03-13T11:14:59.422Z,47090
2015-03-13T11:15:12.659Z,47793
2015-03-13T11:15:26.190Z,48247
2015-03-13T11:15:39.596Z,48740
2015-03-13T11:15:53.003Z,49243
2015-03-13T11:16:06.287Z,49277
2015-03-13T11:16:19.599Z,48985
2015-03-13T11:16:33.084Z,48824
2015-03-13T11:16:46.412Z,48781
2015-03-13T11:16:59.615Z,48684
2015-03-13T11:17:13.133Z,48522
2015-03-13T11:17:26.539Z,48485
2015-03-13T11:17:39.789Z,48473
2015-03-13T11:17:53.242Z,48534
2015-03-13T11:18:06.947Z,48601
2015-03-13T11:18:20.431Z,48846
2015-03-13T11:18:33.806Z,49055
2015-03-13T11:18:47.291Z,49151
2015-03-13T11:19:00.541Z,49062
2015-03-13T11:19:13.888Z,48867
2015-03-13T11:19:27.356Z,48663
2015-03-13T11:19:40.622Z,48442
2015-03-13T11:19:53.934Z,48168
2015-03-13T11:20:07.422Z,47806
2015-03-13T11:20:20.750Z,47525
2015-03-13T11:20:34.016Z,47171
2015-03-13T11:20:47.500Z,46774
2015-03-13T11:21:00.922Z,46273
2015-03-13T11:21:14.142Z,45770
2015-03-13T11:21:27.657Z,45462
2015-03-13T11:21:40.970Z,45384
2015-03-13T11:21:54.470Z,45534
2015-03-13T11:22:07.816Z,45888
2015-03-13T11:22:21.020Z,46296
2015-03-13T11:22:34.520Z,46577
2015-03-13T11:22:47.895Z,46869
2015-03-13T11:23:01.113Z,47055
2015-03-13T11:23:14.600Z,47240
2015-03-13T11:23:28.006Z,47311
2015-03-13T11:23:41.240Z,47399
2015-03-13T11:23:54.615Z,47406
2015-03-13T11:24:08.117Z,47404
2015-03-13T11:24:21.430Z,47458
2015-03-13T11:24:34.805Z,47466
2015-03-13T11:24:48.039Z,47458
2015-03-13T11:25:01.524Z,47456
2015-03-13T11:25:14.963Z,47536
2015-03-13T11:25:28.197Z,47553
2015-03-13T11:25:41.619Z,47668
2015-03-13T11:25:55.104Z,47720
2015-03-13T11:26:08.419Z,47774
2015-03-13T11:26:21.779Z,47896
2015-03-13T11:26:35.325Z,48240
2015-03-13T11:26:48.607Z,48601
2015-03-13T11:27:01.904Z,48671
2015-03-13T11:27:15.313Z,48591
2015-03-13T11:27:28.735Z,48618
2015-03-13T11:27:42.235Z,48643
2015-03-13T11:27:55.469Z,48554
2015-03-13T11:28:08.830Z,48376
2015-03-13T11:28:22.330Z,48145
2015-03-13T11:28:35.612Z,48013
2015-03-13T11:28:48.987Z,48048
2015-03-13T11:29:02.471Z,48189
2015-03-13T11:29:15.801Z,48428
2015-03-13T11:29:29.020Z,48790
2015-03-13T11:29:42.520Z,49216
2015-03-13T11:29:55.879Z,49535
2015-03-13T11:30:09.304Z,49614
2015-03-13T11:30:22.632Z,49854
2015-03-13T11:30:35.992Z,50092
2015-03-13T11:30:49.523Z,50366
2015-03-13T11:31:02.882Z,50551
2015-03-13T11:31:16.180Z,50700
2015-03-13T11:31:29.649Z,50822
2015-03-13T11:31:43.024Z,50946
2015-03-13T11:31:56.274Z,50999
2015-03-13T11:32:09.714Z,50866
2015-03-13T11:32:23.183Z,50709
2015-03-13T11:32:36.402Z,50516
2015-03-13T11:32:49.777Z,50359
2015-03-13T11:33:03.043Z,50292
2015-03-13T11:33:16.529Z,50172
2015-03-13T11:33:29.935Z,50034
2015-03-13T11:33:43.170Z,49897
2015-03-13T11:33:56.607Z,49797
2015-03-13T11:34:10.032Z,49695
2015-03-13T11:34:23.266Z,49486
2015-03-13T11:34:36.688Z,49320
2015-03-13T11:34:50.173Z,49286
2015-03-13T11:35:03.407Z,49166
2015-03-13T11:35:16.753Z,49017
2015-03-13T11:35:30.221Z,49010
2015-03-13T11:35:43.518Z,49099
2015-03-13T11:35:56.971Z,49047
2015-03-13T11:36:10.395Z,49066
2015-03-13T11:36:23.864Z,49259
2015-03-13T11:36:38.927Z,49477
2015-03-13T11:36:52.177Z,49530
2015-03-13T11:37:05.552Z,49592
2015-03-13T11:37:19.086Z,49748
2015-03-13T11:37:32.367Z,49781
2015-03-13T11:37:45.695Z,49728
2015-03-13T11:37:59.211Z,49718
2015-03-13T11:38:12.572Z,49761
2015-03-13T11:38:25.807Z,49646
2015-03-13T11:38:39.228Z,49521
2015-03-13T11:38:52.541Z,49536
2015-03-13T11:39:06.057Z,49527
2015-03-13T11:39:19.340Z,49447
2015-03-13T11:39:32.652Z,49464
2015-03-13T11:39:46.168Z,49499
2015-03-13T11:39:59.512Z,49421
2015-03-13T11:40:12.749Z,49342
2015-03-13T11:40:26.218Z,49280
2015-03-13T11:40:39.624Z,49185
2015-03-13T11:40:52.843Z,49096
2015-03-13T11:41:06.312Z,49069
2015-03-13T11:41:19.751Z,48996
2015-03-13T11:41:33.001Z,49040
2015-03-13T11:41:46.376Z,49145
2015-03-13T11:41:59.876Z,49243
2015-03-13T11:42:13.159Z,49058
2015-03-13T11:42:26.519Z,48854
2015-03-13T11:42:40.050Z,48750
2015-03-13T11:42:53.362Z,48346
2015-03-13T11:43:06.628Z,47923
2015-03-13T11:43:20.146Z,47617
2015-03-13T11:43:33.474Z,47187
2015-03-13T11:43:46.708Z,46696
2015-03-13T11:44:00.177Z,46231
2015-03-13T11:44:13.586Z,45689
2015-03-13T11:44:26.992Z,44942
2015-03-13T11:44:40.274Z,44072
2015-03-13T11:44:53.555Z,43182
2015-03-13T11:45:07.071Z,42196
2015-03-13T11:45:20.416Z,41325
2015-03-13T11:45:33.635Z,40774
2015-03-13T11:45:47.135Z,40282
2015-03-13T11:46:00.448Z,39854
2015-03-13T11:46:13.666Z,39425
2015-03-13T11:46:27.137Z,38896
2015-03-13T11:46:40.559Z,38323
2015-03-13T11:46:53.793Z,37902
2015-03-13T11:47:07.215Z,37487
2015-03-13T11:47:20.514Z,36969
2015-03-13T11:47:34.045Z,36334
2015-03-13T11:47:47.452Z,35923
2015-03-13T11:48:00.702Z,35582
2015-03-13T11:48:14.545Z,35197
2015-03-13T11:48:28.033Z,34920
2015-03-13T11:48:41.267Z,34764
2015-03-13T11:48:54.642Z,34585
2015-03-13T11:49:08.173Z,34181
2015-03-13T11:49:21.395Z,33724
2015-03-13T11:49:34.739Z,33365
2015-03-13T11:49:48.223Z,33101
2015-03-13T11:50:01.504Z,32908
2015-03-13T11:50:14.989Z,32656
2015-03-13T11:50:28.224Z,32445
2015-03-13T11:50:41.662Z,32298
2015-03-13T11:50:55.130Z,32184
2015-03-13T11:51:08.349Z,32266
2015-03-13T11:51:21.680Z,32490
2015-03-13T11:51:35.180Z,32746
2015-03-13T11:51:48.462Z,33118
2015-03-13T11:52:01.790Z,33421
2015-03-13T11:52:15.290Z,33706
2015-03-13T11:52:28.635Z,34019
2015-03-13T11:52:41.854Z,34252
2015-03-13T11:52:55.307Z,34195
2015-03-13T11:53:08.682Z,33786
2015-03-13T11:53:22.184Z,33279
2015-03-13T11:53:35.450Z,32605
2015-03-13T11:53:48.778Z,31877
2015-03-13T11:54:02.278Z,31358
2015-03-13T11:54:15.606Z,30812
2015-03-13T11:54:28.874Z,30187
2015-03-13T11:54:42.358Z,29577
2015-03-13T11:54:55.733Z,29278
2015-03-13T11:55:08.999Z,29067
2015-03-13T11:55:22.455Z,28917
2015-03-13T11:55:35.877Z,29101
2015-03-13T11:55:49.236Z,29318
2015-03-13T11:56:02.564Z,29432
2015-03-13T11:56:15.799Z,29554
2015-03-13T11:56:29.301Z,29846
2015-03-13T11:56:42.676Z,29967
2015-03-13T11:56:55.910Z,30147
2015-03-13T11:57:09.348Z,30304
2015-03-13T11:57:22.804Z,30595
2015-03-13T11:57:36.038Z,30824
2015-03-13T11:57:49.460Z,31018
2015-03-13T11:58:03.069Z,31232
2015-03-13T11:58:16.366Z,31407
2015-03-13T11:58:29.806Z,31583
2015-03-13T11:58:43.212Z,31747
2015-03-13T11:58:56.759Z,31869
2015-03-13T11:59:10.306Z,31814
2015-03-13T11:59:23.636Z,31715
2015-03-13T11:59:37.105Z,31536
2015-03-13T11:59:50.667Z,31418
2015-03-13T12:00:03.964Z,31523
2015-03-13T12:00:17.386Z,31617
2015-03-13T12:00:30.950Z,31749
2015-03-13T12:00:44.372Z,31986
2015-03-13T12:00:57.732Z,32384
2015-03-13T12:01:13.825Z,32798
2015-03-13T12:01:30.938Z,33327
2015-03-13T12:01:48.250Z,33724
2015-03-13T12:02:05.485Z,33937
2015-03-13T12:02:23.174Z,34176
2015-03-13T12:02:38.330Z,34316
2015-03-13T12:02:51.612Z,34421
2015-03-13T12:03:04.924Z,34533
2015-03-13T12:03:18.377Z,34505
2015-03-13T12:03:31.693Z,34416
2015-03-13T12:03:44.943Z,34365
2015-03-13T12:03:58.505Z,34167
2015-03-13T12:04:11.911Z,33601
2015-03-13T12:04:25.320Z,32916
2015-03-13T12:04:39.320Z,32401
2015-03-13T12:04:52.742Z,32040
2015-03-13T12:05:06.023Z,31673
2015-03-13T12:05:19.445Z,31387
2015-03-13T12:05:32.931Z,31429
2015-03-13T12:05:46.165Z,31576
2015-03-13T12:05:59.540Z,31947
2015-03-13T12:06:13.087Z,32389
2015-03-13T12:06:26.417Z,33076
2015-03-13T12:06:39.730Z,33791
2015-03-13T12:06:53.292Z,34428
2015-03-13T12:07:06.652Z,35017
2015-03-13T12:07:19.886Z,35748
2015-03-13T12:07:33.342Z,36455
2015-03-13T12:07:46.733Z,36797
2015-03-13T12:08:00.202Z,36936
2015-03-13T12:08:13.499Z,36988
2015-03-13T12:08:26.814Z,37122
2015-03-13T12:08:40.283Z,37252
2015-03-13T12:08:53.642Z,37403
2015-03-13T12:09:06.877Z,37411
2015-03-13T12:09:20.408Z,37287
2015-03-13T12:09:33.816Z,37235
2015-03-13T12:09:47.050Z,37157
2015-03-13T12:10:00.519Z,36804
2015-03-13T12:10:13.988Z,36452
2015-03-13T12:10:27.318Z,36091
2015-03-13T12:10:40.849Z,35527
2015-03-13T12:10:54.099Z,34804
2015-03-13T12:11:07.599Z,34197
2015-03-13T12:11:20.976Z,33741
2015-03-13T12:11:34.211Z,33117
2015-03-13T12:11:47.695Z,32519
2015-03-13T12:12:01.117Z,32079
2015-03-13T12:12:14.383Z,31807
2015-03-13T12:12:27.792Z,31586
2015-03-13T12:12:41.292Z,31561
2015-03-13T12:12:54.542Z,31611
2015-03-13T12:13:07.917Z,31768
2015-03-13T12:13:21.263Z,32048
2015-03-13T12:13:34.684Z,32450
2015-03-13T12:13:48.106Z,32821
2015-03-13T12:14:01.356Z,33244
2015-03-13T12:14:14.747Z,33857
2015-03-13T12:14:28.265Z,34496
2015-03-13T12:14:41.515Z,34965
2015-03-13T12:14:54.843Z,35398
2015-03-13T12:15:08.343Z,35787
2015-03-13T12:15:21.642Z,36245
2015-03-13T12:15:34.938Z,36827
2015-03-13T12:15:48.438Z,37338
2015-03-13T12:16:01.782Z,37601
2015-03-13T12:16:15.204Z,37775
2015-03-13T12:16:28.441Z,37895
2015-03-13T12:16:41.863Z,38046
2015-03-13T12:16:55.395Z,37833
2015-03-13T12:17:08.691Z,37419
2015-03-13T12:17:22.022Z,37040
2015-03-13T12:17:35.553Z,36617
2015-03-13T12:17:48.928Z,36192
2015-03-13T12:18:02.162Z,35970
2015-03-13T12:18:16.318Z,35915
2015-03-13T12:18:29.758Z,36183
2015-03-13T12:18:43.008Z,36450
2015-03-13T12:18:56.461Z,36798
2015-03-13T12:19:09.758Z,37164
2015-03-13T12:19:23.244Z,37507
2015-03-13T12:19:36.588Z,37758
2015-03-13T12:19:49.838Z,38022
2015-03-13T12:20:03.338Z,38189
2015-03-13T12:20:16.776Z,38162
2015-03-13T12:20:30.029Z,37905
2015-03-13T12:20:43.513Z,37536
2015-03-13T12:20:57.029Z,37191
2015-03-13T12:21:10.341Z,36939
2015-03-13T12:21:23.734Z,36595
2015-03-13T12:21:37.312Z,36269
2015-03-13T12:21:50.624Z,36010
2015-03-13T12:22:04.015Z,35992
2015-03-13T12:22:17.265Z,36043
2015-03-13T12:22:30.736Z,36104
2015-03-13T12:22:44.158Z,36269
2015-03-13T12:22:57.439Z,36632
2015-03-13T12:23:10.845Z,37003
2015-03-13T12:23:24.332Z,37282
2015-03-13T12:23:37.567Z,37536
2015-03-13T12:23:50.911Z,37817
2015-03-13T12:24:04.426Z,38171
2015-03-13T12:24:18.020Z,38401
2015-03-13T12:24:31.350Z,38756
2015-03-13T12:24:45.209Z,39262
2015-03-13T12:24:58.709Z,39529
2015-03-13T12:25:12.241Z,39922
2015-03-13T12:25:25.493Z,40507
2015-03-13T12:25:38.821Z,41265
2015-03-13T12:25:52.352Z,41955
2015-03-13T12:26:05.665Z,42751
2015-03-13T12:26:19.024Z,43682
2015-03-13T12:26:32.543Z,44768
2015-03-13T12:26:45.902Z,45655
2015-03-13T12:26:59.136Z,46345
2015-03-13T12:27:12.668Z,46916
2015-03-13T12:27:26.091Z,47516
2015-03-13T12:27:39.341Z,48010
2015-03-13T12:27:52.841Z,48232
2015-03-13T12:28:06.279Z,48160
2015-03-13T12:28:19.545Z,47584
2015-03-13T12:28:33.015Z,47276
2015-03-13T12:28:46.515Z,47235
2015-03-13T12:28:59.750Z,47005
2015-03-13T12:29:13.125Z,46403
2015-03-13T12:29:26.595Z,45700
2015-03-13T12:29:39.877Z,44908
2015-03-13T12:29:53.174Z,44593
2015-03-13T12:30:06.674Z,44524
2015-03-13T12:30:20.017Z,44834
2015-03-13T12:30:33.473Z,45118
2015-03-13T12:30:46.723Z,45981
2015-03-13T12:31:00.067Z,46686
2015-03-13T12:31:13.598Z,47329
2015-03-13T12:31:26.944Z,48135
2015-03-13T12:31:40.819Z,49279
2015-03-13T12:31:54.350Z,49926
2015-03-13T12:32:07.725Z,50643
2015-03-13T12:32:20.991Z,51191
2015-03-13T12:32:34.510Z,51999